Darstellungsparameter: Aktuell verwendete Einstellungen:
Skalierung der Graphiken ... ?
xyx+y,   Skalierungsfaktor:      Skalierung: Modus: x, Faktor: 1
Darstellungszeitraum ... ?
Vom - - bis: - -   Zeitraum: 20.06.2021 - 20.06.2021
Min/Max/Avg-Anzeige ... ?
Zeige MMA aktuell
Zeige MMA Monat
Zeige MMA alles
Zeige --A aktuell
Zeige --A Monat
Zeige --A alles
Keine MMA-Anzeige
MMA:
Average (ber die Originaldaten)
MMA-Basis: 20.06.2021 - 20.06.2021
Quicknavigation für Darstellung... ?
Tage:      1T, 2T, 3T, 5T -1T -2T -3T -5T +1T +2T +3T +5T
Wochen: 1W, 2W, 3W -1W -2W -3W +1W +2W +3W
Monate: 1M, 3M, 6M -1M -3M -6M +1M +3M +6M
Jahre:    1J, 3J, 5J, 10J -1J -3J -5J -10J +1J +3J +5J +10J
Nutze für die Darstellung ... ?
Originaldaten oder Mittelwerte auf ...
Stundenbasis Tagesbasis Wochenbasis
Monatsbasis Jahresbasis      Datenbasis: Original-Daten
Darstellen als:
Statistik (Auto) Statistik J:M      Darstellung:
Zur Graphik,    zurück zur Übersicht aller Sensoren.
 
Tabellarische Datenbersicht: ?
 
Sensor: Nr:Datum:Temp:Abs-Feuchte:Windchill:Wind:
Aussen-T/F 1 20-06-2021 00:00:00 23.8 C 16.78 g/m*3 23.8 C 3.2 km/h
2 20-06-2021 00:05:00 23.7 C 16.68 g/m*3 23.7 C 3.2 km/h
3 20-06-2021 00:10:00 23.6 C 16.8 g/m*3 23.6 C 1.6 km/h
4 20-06-2021 00:15:00 23.5 C 16.71 g/m*3 23.5 C 4.8 km/h
5 20-06-2021 00:20:00 23.4 C 16.61 g/m*3 23.4 C 3.2 km/h
6 20-06-2021 00:25:00 23.3 C 16.73 g/m*3 23.3 C 0 km/h
7 20-06-2021 00:30:00 23.3 C 16.73 g/m*3 23.3 C 0 km/h
8 20-06-2021 00:35:00 23.3 C 16.73 g/m*3 23.3 C 0 km/h
9 20-06-2021 00:40:00 23.3 C 16.73 g/m*3 23.3 C 1.6 km/h
10 20-06-2021 00:45:00 23.3 C 16.73 g/m*3 23.3 C 0 km/h
11 20-06-2021 00:50:00 23.4 C 17.24 g/m*3 23.4 C 0 km/h
12 20-06-2021 00:55:00 23.5 C 17.98 g/m*3 23.5 C 4.8 km/h
13 20-06-2021 01:00:00 23.3 C 17.98 g/m*3 23.3 C 8.1 km/h
14 20-06-2021 01:05:00 23.1 C 17.98 g/m*3 23.1 C 9.7 km/h
15 20-06-2021 01:10:00 22.9 C 18.19 g/m*3 22.9 C 8.1 km/h
16 20-06-2021 01:15:00 22.6 C 17.88 g/m*3 22.6 C 17.7 km/h
17 20-06-2021 01:20:00 22.1 C 17.37 g/m*3 22.1 C 19.3 km/h
18 20-06-2021 01:25:00 21.7 C 17.17 g/m*3 21.7 C 29 km/h
19 20-06-2021 01:30:00 21.2 C 16.86 g/m*3 21.2 C 19.3 km/h
20 20-06-2021 01:35:00 20.9 C 16.76 g/m*3 20.9 C 17.7 km/h
21 20-06-2021 01:40:00 20.7 C 16.74 g/m*3 20.7 C 14.5 km/h
22 20-06-2021 01:45:00 20.2 C 16.09 g/m*3 20.2 C 17.7 km/h
23 20-06-2021 01:50:00 19.9 C 15.98 g/m*3 19.9 C 8.1 km/h
24 20-06-2021 01:55:00 19.9 C 16.15 g/m*3 19.9 C 9.7 km/h
25 20-06-2021 02:00:00 19.9 C 16.15 g/m*3 19.9 C 12.9 km/h
Sensor: Nr:Datum:Temp:Abs-Feuchte:Windchill:Wind:
Aussen-T/F 26 20-06-2021 02:05:00 20.1 C 16.51 g/m*3 20.1 C 12.9 km/h
27 20-06-2021 02:10:00 20 C 16.24 g/m*3 20 C 9.7 km/h
28 20-06-2021 02:15:00 19.9 C 16.15 g/m*3 19.9 C 6.4 km/h
29 20-06-2021 02:20:00 19.8 C 16.23 g/m*3 19.8 C 4.8 km/h
30 20-06-2021 02:25:00 19.8 C 16.23 g/m*3 19.8 C 1.6 km/h
31 20-06-2021 02:30:00 19.7 C 16.13 g/m*3 19.7 C 0 km/h
32 20-06-2021 02:35:00 19.7 C 16.13 g/m*3 19.7 C 1.6 km/h
33 20-06-2021 02:40:00 19.7 C 16.13 g/m*3 19.7 C 0 km/h
34 20-06-2021 02:45:00 19.6 C 16.04 g/m*3 19.6 C 0 km/h
35 20-06-2021 02:50:00 19.6 C 16.04 g/m*3 19.6 C 3.2 km/h
36 20-06-2021 02:55:00 19.7 C 16.13 g/m*3 19.7 C 8.1 km/h
37 20-06-2021 03:00:00 19.8 C 16.4 g/m*3 19.8 C 8.1 km/h
38 20-06-2021 03:05:00 19.8 C 16.4 g/m*3 19.8 C 4.8 km/h
39 20-06-2021 03:10:00 19.8 C 16.4 g/m*3 19.8 C 3.2 km/h
40 20-06-2021 03:15:00 19.8 C 16.4 g/m*3 19.8 C 1.6 km/h
41 20-06-2021 03:20:00 19.8 C 16.4 g/m*3 19.8 C 0 km/h
42 20-06-2021 03:25:00 19.8 C 16.4 g/m*3 19.8 C 0 km/h
43 20-06-2021 03:30:00 19.7 C 16.3 g/m*3 19.7 C 0 km/h
44 20-06-2021 03:35:00 19.7 C 16.3 g/m*3 19.7 C 0 km/h
45 20-06-2021 03:40:00 19.7 C 16.3 g/m*3 19.7 C 0 km/h
46 20-06-2021 03:45:00 19.7 C 16.3 g/m*3 19.7 C 0 km/h
47 20-06-2021 03:50:00 19.6 C 16.21 g/m*3 19.6 C 0 km/h
48 20-06-2021 03:55:00 19.6 C 16.21 g/m*3 19.6 C 0 km/h
49 20-06-2021 04:00:00 19.6 C 16.21 g/m*3 19.6 C 1.6 km/h
50 20-06-2021 04:05:00 19.6 C 16.21 g/m*3 19.6 C 1.6 km/h
Sensor: Nr:Datum:Temp:Abs-Feuchte:Windchill:Wind:
Aussen-T/F 51 20-06-2021 04:10:00 19.6 C 16.21 g/m*3 19.6 C 4.8 km/h
52 20-06-2021 04:15:00 19.6 C 16.21 g/m*3 19.6 C 3.2 km/h
53 20-06-2021 04:20:00 19.6 C 16.21 g/m*3 19.6 C 0 km/h
54 20-06-2021 04:25:00 19.6 C 16.21 g/m*3 19.6 C 3.2 km/h
55 20-06-2021 04:30:00 19.6 C 16.21 g/m*3 19.6 C 0 km/h
56 20-06-2021 04:35:00 19.6 C 16.21 g/m*3 19.6 C 1.6 km/h
57 20-06-2021 04:40:00 19.6 C 16.21 g/m*3 19.6 C 3.2 km/h
58 20-06-2021 04:45:00 19.6 C 16.21 g/m*3 19.6 C 4.8 km/h
59 20-06-2021 04:50:00 19.6 C 16.21 g/m*3 19.6 C 3.2 km/h
60 20-06-2021 04:55:00 19.5 C 16.11 g/m*3 19.5 C 3.2 km/h
61 20-06-2021 05:00:00 19.4 C 16.02 g/m*3 19.4 C 3.2 km/h
62 20-06-2021 05:05:00 19.4 C 16.02 g/m*3 19.4 C 4.8 km/h
63 20-06-2021 05:10:00 19.3 C 15.92 g/m*3 19.3 C 3.2 km/h
64 20-06-2021 05:15:00 19.3 C 15.92 g/m*3 19.3 C 4.8 km/h
65 20-06-2021 05:20:00 19.2 C 15.83 g/m*3 19.2 C 3.2 km/h
66 20-06-2021 05:25:00 19.2 C 15.83 g/m*3 19.2 C 3.2 km/h
67 20-06-2021 05:30:00 19.1 C 15.74 g/m*3 19.1 C 4.8 km/h
68 20-06-2021 05:35:00 19.1 C 15.74 g/m*3 19.1 C 14.5 km/h
69 20-06-2021 05:40:00 19.1 C 15.74 g/m*3 19.1 C 11.3 km/h
70 20-06-2021 05:45:00 19.1 C 15.74 g/m*3 19.1 C 19.3 km/h
71 20-06-2021 05:50:00 19 C 15.64 g/m*3 19 C 9.7 km/h
72 20-06-2021 05:55:00 19 C 15.64 g/m*3 19 C 16.1 km/h
73 20-06-2021 06:00:00 18.9 C 15.55 g/m*3 18.9 C 24.1 km/h
74 20-06-2021 06:05:00 18.9 C 15.55 g/m*3 18.9 C 12.9 km/h
75 20-06-2021 06:10:00 18.9 C 15.55 g/m*3 18.9 C 17.7 km/h
Sensor: Nr:Datum:Temp:Abs-Feuchte:Windchill:Wind:
Aussen-T/F 76 20-06-2021 06:15:00 18.9 C 15.55 g/m*3 18.9 C 11.3 km/h
77 20-06-2021 06:20:00 18.8 C 15.46 g/m*3 18.8 C 17.7 km/h
78 20-06-2021 06:25:00 18.8 C 15.46 g/m*3 18.8 C 9.7 km/h
79 20-06-2021 06:30:00 18.8 C 15.46 g/m*3 18.8 C 14.5 km/h
80 20-06-2021 06:35:00 18.8 C 15.46 g/m*3 18.8 C 12.9 km/h
81 20-06-2021 06:40:00 18.8 C 15.46 g/m*3 18.8 C 9.7 km/h
82 20-06-2021 06:45:00 18.8 C 15.46 g/m*3 18.8 C 8.1 km/h
83 20-06-2021 06:50:00 18.8 C 15.46 g/m*3 18.8 C 8.1 km/h
84 20-06-2021 06:55:00 18.8 C 15.46 g/m*3 18.8 C 12.9 km/h
85 20-06-2021 07:00:00 18.8 C 15.46 g/m*3 18.8 C 11.3 km/h
86 20-06-2021 07:05:00 18.7 C 15.21 g/m*3 18.7 C 17.7 km/h
87 20-06-2021 07:10:00 18.8 C 15.3 g/m*3 18.8 C 16.1 km/h
88 20-06-2021 07:15:00 18.8 C 15.3 g/m*3 18.8 C 8.1 km/h
89 20-06-2021 07:20:00 18.8 C 15.3 g/m*3 18.8 C 9.7 km/h
90 20-06-2021 07:25:00 18.7 C 15.21 g/m*3 18.7 C 12.9 km/h
91 20-06-2021 07:30:00 18.7 C 15.21 g/m*3 18.7 C 1.6 km/h
92 20-06-2021 07:35:00 18.7 C 15.21 g/m*3 18.7 C 3.2 km/h
93 20-06-2021 07:40:00 18.7 C 15.21 g/m*3 18.7 C 4.8 km/h
94 20-06-2021 07:45:00 18.8 C 15.3 g/m*3 18.8 C 9.7 km/h
95 20-06-2021 07:50:00 18.8 C 15.3 g/m*3 18.8 C 3.2 km/h
96 20-06-2021 07:55:00 18.9 C 15.39 g/m*3 18.9 C 3.2 km/h
97 20-06-2021 08:00:00 18.9 C 15.39 g/m*3 18.9 C 3.2 km/h
98 20-06-2021 08:05:00 18.9 C 15.39 g/m*3 18.9 C 8.1 km/h
99 20-06-2021 08:10:00 18.9 C 15.39 g/m*3 18.9 C 12.9 km/h
100 20-06-2021 08:15:00 18.9 C 15.39 g/m*3 18.9 C 11.3 km/h
Sensor: Nr:Datum:Temp:Abs-Feuchte:Windchill:Wind:
Aussen-T/F 101 20-06-2021 08:20:00 19.1 C 15.41 g/m*3 19.1 C 14.5 km/h
102 20-06-2021 08:25:00 19.2 C 15.5 g/m*3 19.2 C 16.1 km/h
103 20-06-2021 08:30:00 19.4 C 15.52 g/m*3 19.4 C 12.9 km/h
104 20-06-2021 08:35:00 19.6 C 15.53 g/m*3 19.6 C 12.9 km/h
105 20-06-2021 08:40:00 19.7 C 15.45 g/m*3 19.7 C 20.9 km/h
106 20-06-2021 08:45:00 19.8 C 15.37 g/m*3 19.8 C 17.7 km/h
107 20-06-2021 08:50:00 19.9 C 15.29 g/m*3 19.9 C 14.5 km/h
108 20-06-2021 08:55:00 19.9 C 15.29 g/m*3 19.9 C 16.1 km/h
109 20-06-2021 09:00:00 20.1 C 15.47 g/m*3 20.1 C 14.5 km/h
110 20-06-2021 09:05:00 20.1 C 15.3 g/m*3 20.1 C 14.5 km/h
111 20-06-2021 09:10:00 20.1 C 15.3 g/m*3 20.1 C 12.9 km/h
112 20-06-2021 09:15:00 20.1 C 15.3 g/m*3 20.1 C 11.3 km/h
113 20-06-2021 09:20:00 20.2 C 15.39 g/m*3 20.2 C 11.3 km/h
114 20-06-2021 09:25:00 20.3 C 15.3 g/m*3 20.3 C 9.7 km/h
115 20-06-2021 09:30:00 20.4 C 15.57 g/m*3 20.4 C 14.5 km/h
116 20-06-2021 09:35:00 20.4 C 15.21 g/m*3 20.4 C 11.3 km/h
117 20-06-2021 09:40:00 20.4 C 15.39 g/m*3 20.4 C 3.2 km/h
118 20-06-2021 09:45:00 20.4 C 15.39 g/m*3 20.4 C 6.4 km/h
119 20-06-2021 09:50:00 20.6 C 15.39 g/m*3 20.6 C 12.9 km/h
120 20-06-2021 09:55:00 20.8 C 15.39 g/m*3 20.8 C 11.3 km/h
121 20-06-2021 10:00:00 20.8 C 15.21 g/m*3 20.8 C 12.9 km/h
122 20-06-2021 10:05:00 20.9 C 15.3 g/m*3 20.9 C 9.7 km/h
123 20-06-2021 10:10:00 21.1 C 15.48 g/m*3 21.1 C 6.4 km/h
124 20-06-2021 10:15:00 21.2 C 15.75 g/m*3 21.2 C 8.1 km/h
125 20-06-2021 10:20:00 21.4 C 15.56 g/m*3 21.4 C 11.3 km/h
Sensor: Nr:Datum:Temp:Abs-Feuchte:Windchill:Wind:
Aussen-T/F 126 20-06-2021 10:25:00 21.7 C 15.64 g/m*3 21.7 C 11.3 km/h
127 20-06-2021 10:30:00 21.9 C 15.63 g/m*3 21.9 C 12.9 km/h
128 20-06-2021 10:35:00 22.1 C 15.23 g/m*3 22.1 C 14.5 km/h
129 20-06-2021 10:40:00 22.2 C 15.31 g/m*3 22.2 C 9.7 km/h
130 20-06-2021 10:45:00 22.2 C 15.12 g/m*3 22.2 C 14.5 km/h
131 20-06-2021 10:50:00 22.3 C 15.2 g/m*3 22.3 C 12.9 km/h
132 20-06-2021 10:55:00 22.4 C 15.49 g/m*3 22.4 C 9.7 km/h
133 20-06-2021 11:00:00 22.5 C 15.18 g/m*3 22.5 C 16.1 km/h
134 20-06-2021 11:05:00 22.6 C 15.47 g/m*3 22.6 C 8.1 km/h
135 20-06-2021 11:10:00 22.6 C 15.27 g/m*3 22.6 C 9.7 km/h
136 20-06-2021 11:15:00 22.8 C 15.85 g/m*3 22.8 C 6.4 km/h
137 20-06-2021 11:20:00 22.9 C 15.53 g/m*3 22.9 C 8.1 km/h
138 20-06-2021 11:25:00 23.1 C 15.71 g/m*3 23.1 C 9.7 km/h
139 20-06-2021 11:30:00 23.1 C 15.92 g/m*3 23.1 C 11.3 km/h
140 20-06-2021 11:35:00 23.1 C 15.5 g/m*3 23.1 C 14.5 km/h
141 20-06-2021 11:40:00 23.1 C 15.92 g/m*3 23.1 C 6.4 km/h
142 20-06-2021 11:45:00 23.1 C 15.5 g/m*3 23.1 C 4.8 km/h
143 20-06-2021 11:50:00 23.2 C 15.8 g/m*3 23.2 C 6.4 km/h
144 20-06-2021 11:55:00 23.2 C 15.18 g/m*3 23.2 C 9.7 km/h
145 20-06-2021 12:00:00 23.2 C 15.8 g/m*3 23.2 C 8.1 km/h
146 20-06-2021 12:05:00 23.3 C 15.68 g/m*3 23.3 C 4.8 km/h
147 20-06-2021 12:10:00 23.3 C 15.47 g/m*3 23.3 C 8.1 km/h
148 20-06-2021 12:15:00 23.3 C 15.47 g/m*3 23.3 C 8.1 km/h
149 20-06-2021 12:20:00 23.6 C 15.74 g/m*3 23.6 C 11.3 km/h
150 20-06-2021 12:25:00 23.7 C 15.19 g/m*3 23.7 C 8.1 km/h
Sensor: Nr:Datum:Temp:Abs-Feuchte:Windchill:Wind:
Aussen-T/F 151 20-06-2021 12:30:00 23.7 C 15.4 g/m*3 23.7 C 9.7 km/h
152 20-06-2021 12:35:00 23.8 C 15.49 g/m*3 23.8 C 4.8 km/h
153 20-06-2021 12:40:00 23.8 C 14.84 g/m*3 23.8 C 12.9 km/h
154 20-06-2021 12:45:00 23.8 C 15.06 g/m*3 23.8 C 11.3 km/h
155 20-06-2021 12:50:00 23.8 C 15.06 g/m*3 23.8 C 9.7 km/h
156 20-06-2021 12:55:00 23.8 C 15.49 g/m*3 23.8 C 11.3 km/h
157 20-06-2021 13:00:00 23.9 C 15.58 g/m*3 23.9 C 9.7 km/h
158 20-06-2021 13:05:00 24 C 15.23 g/m*3 24 C 8.1 km/h
159 20-06-2021 13:10:00 24.2 C 15.18 g/m*3 24.2 C 9.7 km/h
160 20-06-2021 13:15:00 24.4 C 15.13 g/m*3 24.4 C 11.3 km/h
161 20-06-2021 13:20:00 24.6 C 15.3 g/m*3 24.6 C 6.4 km/h
162 20-06-2021 13:25:00 24.8 C 15.02 g/m*3 24.8 C 6.4 km/h
163 20-06-2021 13:30:00 24.8 C 15.25 g/m*3 24.8 C 14.5 km/h
164 20-06-2021 13:35:00 24.7 C 14.49 g/m*3 24.7 C 8.1 km/h
165 20-06-2021 13:40:00 24.7 C 15.16 g/m*3 24.7 C 8.1 km/h
166 20-06-2021 13:45:00 24.7 C 14.71 g/m*3 24.7 C 6.4 km/h
167 20-06-2021 13:50:00 24.8 C 15.02 g/m*3 24.8 C 9.7 km/h
168 20-06-2021 13:55:00 24.8 C 14.34 g/m*3 24.8 C 9.7 km/h
169 20-06-2021 14:00:00 24.9 C 14.42 g/m*3 24.9 C 9.7 km/h
170 20-06-2021 14:05:00 25 C 14.5 g/m*3 25 C 8.1 km/h
171 20-06-2021 14:10:00 25.1 C 14.82 g/m*3 25.1 C 8.1 km/h
172 20-06-2021 14:15:00 25.1 C 14.35 g/m*3 25.1 C 4.8 km/h
173 20-06-2021 14:20:00 25.3 C 14.75 g/m*3 25.3 C 4.8 km/h
174 20-06-2021 14:25:00 25.4 C 14.83 g/m*3 25.4 C 8.1 km/h
175 20-06-2021 14:30:00 25.5 C 14.68 g/m*3 25.5 C 4.8 km/h
Sensor: Nr:Datum:Temp:Abs-Feuchte:Windchill:Wind:
Aussen-T/F 176 20-06-2021 14:35:00 25.6 C 14.76 g/m*3 25.6 C 6.4 km/h
177 20-06-2021 14:40:00 25.8 C 14.93 g/m*3 25.8 C 8.1 km/h
178 20-06-2021 14:45:00 26 C 16.55 g/m*3 26 C 4.8 km/h
179 20-06-2021 14:50:00 26.3 C 14.61 g/m*3 26.3 C 6.4 km/h
180 20-06-2021 14:55:00 26.4 C 15.19 g/m*3 26.4 C 4.8 km/h
181 20-06-2021 15:00:00 26.4 C 15.19 g/m*3 26.4 C 3.2 km/h
182 20-06-2021 15:05:00 26.4 C 13.44 g/m*3 26.4 C 4.8 km/h
183 20-06-2021 15:10:00 26.4 C 13.94 g/m*3 26.4 C 6.4 km/h
184 20-06-2021 15:15:00 26.6 C 13.84 g/m*3 26.6 C 8.1 km/h
185 20-06-2021 15:20:00 26.8 C 13.24 g/m*3 26.8 C 6.4 km/h
186 20-06-2021 15:25:00 27 C 12.87 g/m*3 27 C 8.1 km/h
187 20-06-2021 15:30:00 27.4 C 13.68 g/m*3 27.4 C 19.3 km/h
188 20-06-2021 15:35:00 27.9 C 13.52 g/m*3 27.9 C 6.4 km/h
189 20-06-2021 15:40:00 28.4 C 13.62 g/m*3 28.4 C 6.4 km/h
190 20-06-2021 15:45:00 28.8 C 14.21 g/m*3 28.8 C 8.1 km/h
191 20-06-2021 15:50:00 29.1 C 15.6 g/m*3 29.1 C 0 km/h
192 20-06-2021 15:55:00 29.2 C 13.94 g/m*3 29.2 C 6.4 km/h
193 20-06-2021 16:00:00 29.3 C 14.6 g/m*3 29.3 C 8.1 km/h
194 20-06-2021 16:05:00 29.3 C 14.31 g/m*3 29.3 C 3.2 km/h
195 20-06-2021 16:10:00 29.4 C 14.09 g/m*3 29.4 C 6.4 km/h
196 20-06-2021 16:15:00 29.3 C 14.31 g/m*3 29.3 C 8.1 km/h
197 20-06-2021 16:20:00 29.1 C 14.73 g/m*3 29.1 C 1.6 km/h
198 20-06-2021 16:25:00 28.8 C 17.33 g/m*3 28.8 C 1.6 km/h
199 20-06-2021 16:30:00 28.6 C 18.55 g/m*3 28.6 C 1.6 km/h
200 20-06-2021 16:35:00 28.6 C 18.55 g/m*3 28.6 C 0 km/h
Sensor: Nr:Datum:Temp:Abs-Feuchte:Windchill:Wind:
Aussen-T/F 201 20-06-2021 16:40:00 28.5 C 18.45 g/m*3 28.5 C 0 km/h
202 20-06-2021 16:45:00 28.6 C 16.02 g/m*3 28.6 C 0 km/h
203 20-06-2021 16:50:00 28.6 C 19.11 g/m*3 28.6 C 0 km/h
204 20-06-2021 16:55:00 28.6 C 18.55 g/m*3 28.6 C 0 km/h
205 20-06-2021 17:00:00 28.6 C 18.83 g/m*3 28.6 C 1.6 km/h
206 20-06-2021 17:05:00 28.4 C 14.45 g/m*3 28.4 C 6.4 km/h
207 20-06-2021 17:10:00 28.3 C 14.93 g/m*3 28.3 C 6.4 km/h
208 20-06-2021 17:15:00 28.2 C 15.67 g/m*3 28.2 C 3.2 km/h
209 20-06-2021 17:20:00 28.3 C 18.8 g/m*3 28.3 C 0 km/h
210 20-06-2021 17:25:00 28.2 C 19.25 g/m*3 28.2 C 3.2 km/h
211 20-06-2021 17:30:00 27.9 C 18.39 g/m*3 27.9 C 3.2 km/h
212 20-06-2021 17:35:00 27.6 C 18.36 g/m*3 27.6 C 1.6 km/h
213 20-06-2021 17:40:00 27.3 C 18.58 g/m*3 27.3 C 0 km/h
214 20-06-2021 17:45:00 26.9 C 17.15 g/m*3 26.9 C 8.1 km/h
215 20-06-2021 17:50:00 26.6 C 15.35 g/m*3 26.6 C 6.4 km/h
216 20-06-2021 17:55:00 26.6 C 18.12 g/m*3 26.6 C 0 km/h
217 20-06-2021 18:00:00 26.4 C 18.42 g/m*3 26.4 C 0 km/h
218 20-06-2021 18:05:00 26.2 C 18.46 g/m*3 26.2 C 0 km/h
219 20-06-2021 18:10:00 25.9 C 18.16 g/m*3 25.9 C 4.8 km/h
220 20-06-2021 18:15:00 25.7 C 17.96 g/m*3 25.7 C 0 km/h
221 20-06-2021 18:20:00 25.3 C 17.79 g/m*3 25.3 C 4.8 km/h
222 20-06-2021 18:25:00 25 C 17.73 g/m*3 25 C 3.2 km/h
223 20-06-2021 18:30:00 24.7 C 17.65 g/m*3 24.7 C 4.8 km/h
224 20-06-2021 18:35:00 24.4 C 17.58 g/m*3 24.4 C 6.4 km/h
225 20-06-2021 18:40:00 24.2 C 17.38 g/m*3 24.2 C 4.8 km/h
Sensor: Nr:Datum:Temp:Abs-Feuchte:Windchill:Wind:
Aussen-T/F 226 20-06-2021 18:45:00 24.1 C 17.29 g/m*3 24.1 C 0 km/h
227 20-06-2021 18:50:00 23.8 C 16.99 g/m*3 23.8 C 3.2 km/h
228 20-06-2021 18:55:00 23.7 C 17.11 g/m*3 23.7 C 1.6 km/h
229 20-06-2021 19:00:00 23.6 C 17.23 g/m*3 23.6 C 4.8 km/h
230 20-06-2021 19:05:00 23.4 C 17.03 g/m*3 23.4 C 6.4 km/h
231 20-06-2021 19:10:00 23.4 C 17.24 g/m*3 23.4 C 1.6 km/h
232 20-06-2021 19:15:00 23.6 C 17.65 g/m*3 23.6 C 1.6 km/h
233 20-06-2021 19:20:00 23.7 C 17.54 g/m*3 23.7 C 3.2 km/h
234 20-06-2021 19:25:00 23.8 C 17.85 g/m*3 23.8 C 0 km/h
235 20-06-2021 19:30:00 24 C 17.84 g/m*3 24 C 0 km/h
236 20-06-2021 19:35:00 24.1 C 17.94 g/m*3 24.1 C 4.8 km/h
237 20-06-2021 19:40:00 24.1 C 17.94 g/m*3 24.1 C 3.2 km/h
238 20-06-2021 19:45:00 24.2 C 18.04 g/m*3 24.2 C 3.2 km/h
239 20-06-2021 19:50:00 24.3 C 18.15 g/m*3 24.3 C 3.2 km/h
240 20-06-2021 19:55:00 24.4 C 18.25 g/m*3 24.4 C 3.2 km/h
241 20-06-2021 20:00:00 24.5 C 18.35 g/m*3 24.5 C 1.6 km/h
242 20-06-2021 20:05:00 24.5 C 18.13 g/m*3 24.5 C 3.2 km/h
243 20-06-2021 20:10:00 24.5 C 17.9 g/m*3 24.5 C 0 km/h
244 20-06-2021 20:15:00 24.4 C 17.8 g/m*3 24.4 C 1.6 km/h
245 20-06-2021 20:20:00 24.2 C 17.6 g/m*3 24.2 C 4.8 km/h
246 20-06-2021 20:25:00 23.9 C 17.31 g/m*3 23.9 C 3.2 km/h
247 20-06-2021 20:30:00 23.7 C 17.11 g/m*3 23.7 C 4.8 km/h
248 20-06-2021 20:35:00 23.6 C 17.23 g/m*3 23.6 C 1.6 km/h
249 20-06-2021 20:40:00 23.3 C 16.94 g/m*3 23.3 C 4.8 km/h
250 20-06-2021 20:45:00 23.2 C 16.84 g/m*3 23.2 C 1.6 km/h
Sensor: Nr:Datum:Temp:Abs-Feuchte:Windchill:Wind:
Aussen-T/F 251 20-06-2021 20:50:00 23 C 16.85 g/m*3 23 C 3.2 km/h
252 20-06-2021 20:55:00 22.9 C 16.76 g/m*3 22.9 C 4.8 km/h
253 20-06-2021 21:00:00 22.8 C 16.87 g/m*3 22.8 C 3.2 km/h
254 20-06-2021 21:05:00 22.7 C 16.77 g/m*3 22.7 C 3.2 km/h
255 20-06-2021 21:10:00 22.7 C 16.77 g/m*3 22.7 C 1.6 km/h
256 20-06-2021 21:15:00 22.6 C 16.67 g/m*3 22.6 C 1.6 km/h
257 20-06-2021 21:20:00 22.6 C 16.67 g/m*3 22.6 C 4.8 km/h
258 20-06-2021 21:25:00 22.5 C 16.58 g/m*3 22.5 C 3.2 km/h
259 20-06-2021 21:30:00 22.4 C 16.48 g/m*3 22.4 C 3.2 km/h
260 20-06-2021 21:35:00 22.3 C 16.59 g/m*3 22.3 C 4.8 km/h
261 20-06-2021 21:40:00 22.3 C 16.59 g/m*3 22.3 C 6.4 km/h
262 20-06-2021 21:45:00 22.2 C 16.49 g/m*3 22.2 C 6.4 km/h
263 20-06-2021 21:50:00 22.1 C 16.4 g/m*3 22.1 C 8.1 km/h
264 20-06-2021 21:55:00 21.9 C 16.21 g/m*3 21.9 C 9.7 km/h
265 20-06-2021 22:00:00 21.8 C 16.31 g/m*3 21.8 C 9.7 km/h
266 20-06-2021 22:05:00 21.7 C 16.21 g/m*3 21.7 C 8.1 km/h
267 20-06-2021 22:10:00 21.7 C 16.41 g/m*3 21.7 C 8.1 km/h
268 20-06-2021 22:15:00 21.6 C 16.31 g/m*3 21.6 C 6.4 km/h
269 20-06-2021 22:20:00 21.5 C 16.41 g/m*3 21.5 C 3.2 km/h
270 20-06-2021 22:25:00 21.4 C 16.31 g/m*3 21.4 C 4.8 km/h
271 20-06-2021 22:30:00 21.3 C 16.22 g/m*3 21.3 C 4.8 km/h
272 20-06-2021 22:35:00 21.2 C 16.12 g/m*3 21.2 C 4.8 km/h
273 20-06-2021 22:40:00 21.1 C 16.21 g/m*3 21.1 C 1.6 km/h
274 20-06-2021 22:45:00 21.1 C 16.21 g/m*3 21.1 C 4.8 km/h
275 20-06-2021 22:50:00 20.9 C 16.03 g/m*3 20.9 C 4.8 km/h
Sensor: Nr:Datum:Temp:Abs-Feuchte:Windchill:Wind:
Aussen-T/F 276 20-06-2021 22:55:00 20.9 C 16.03 g/m*3 20.9 C 6.4 km/h
277 20-06-2021 23:00:00 20.8 C 16.12 g/m*3 20.8 C 4.8 km/h
278 20-06-2021 23:05:00 20.8 C 16.12 g/m*3 20.8 C 0 km/h
279 20-06-2021 23:10:00 20.8 C 16.12 g/m*3 20.8 C 1.6 km/h
280 20-06-2021 23:15:00 20.8 C 16.3 g/m*3 20.8 C 3.2 km/h
281 20-06-2021 23:20:00 20.7 C 16.2 g/m*3 20.7 C 3.2 km/h
282 20-06-2021 23:25:00 20.7 C 16.2 g/m*3 20.7 C 1.6 km/h
283 20-06-2021 23:30:00 20.7 C 16.2 g/m*3 20.7 C 1.6 km/h
284 20-06-2021 23:35:00 20.6 C 16.29 g/m*3 20.6 C 0 km/h
285 20-06-2021 23:40:00 20.6 C 16.29 g/m*3 20.6 C 0 km/h
286 20-06-2021 23:45:00 20.6 C 16.29 g/m*3 20.6 C 4.8 km/h
287 20-06-2021 23:50:00 20.6 C 16.29 g/m*3 20.6 C 4.8 km/h
288 20-06-2021 23:55:00 20.5 C 16.37 g/m*3 20.5 C 1.6 km/h

Legende:
   Min
   Max


Maximal/Minimal-Werte vom 20.06.2021 - 20.06.2021

Sensor Min Max Avg
Temp
(Aussen-T/F)
18.7 °C
20-06-2021  07:05:00
29.4 °C
20-06-2021  16:10:00
22.5 °C
Abs-Feuchte
(Aussen-T/F)
12.87 g/m*3
20-06-2021  15:25:00
19.25 g/m*3
20-06-2021  17:25:00
16.03 g/m*3
Windchill
(Aussen-T/F)
18.7 C
20-06-2021  07:05:00
29.4 C
20-06-2021  16:10:00
22.43 C

Die Daten stammen von einer Davis Vantage Pro 2 Wetter-Station und werden unter Linux mit der Software wview2wettercgi und aufbereitet. Alle Angaben erfolgen ohne Gewähr für ihre Vollständigkeit oder Richtigkeit.
Kontakt: Rainer Krienke krienke@uni-koblenz.de . Meine Webseiten an der Uni Koblenz oder privat.
Version: $Revision: 0.78 $